Weather at Incirli Border Post Helipad

Public forecast

Using degrees Celsius for public forecast. Weather courtesy of forecast.io.

Closest aviation weather report (METAR) to Incirli Border Post Helipad

Closest report is Hatay Airport, 16.7 nm (31.0 km) SW.

2024/04/22 04:50 (retrieved 59 minutes ago)

LTDA 220450Z 22005KT 170V260 9999 SCT040 19/11 Q1018 NOSIG

Closest aviation forecast (TAF) to Incirli Border Post Helipad

Forecast is more than 6 hours old.

Closest forecast is İncirlik Air Base, 61.2 nm (113.4 km) WNW.

2024/04/21 18:00 Correction (retrieved 12 hours ago)

TAF LTAG 211640Z 2118/2218 VRB02KT CAVOK BECMG 2201/2203 SCT030 BECMG 2210/2212 20012KT CAVOK BECMG 2216/2218 VRB02KT TAF COR LTAP 211640Z 2118/2218 02018KT CAVOK BECMG 2118/2122 VRB02KT